sensor_id;sensor_type;location;lat;lon;timestamp;P1;P2;P0
72031;PMS5003;49185;42.320;23.198;2023-06-26T00:02:24;6.67;6.67;1.33
72031;PMS5003;49185;42.320;23.198;2023-06-26T00:04:50;8.00;6.00;1.00
72031;PMS5003;49185;42.320;23.198;2023-06-26T00:07:15;9.67;7.67;2.00
72031;PMS5003;49185;42.320;23.198;2023-06-26T00:09:40;6.33;5.00;1.00
72031;PMS5003;49185;42.320;23.198;2023-06-26T00:12:06;9.00;7.33;1.00
72031;PMS5003;49185;42.320;23.198;2023-06-26T00:14:31;9.33;7.00;1.00
72031;PMS5003;49185;42.320;23.198;2023-06-26T00:16:57;6.33;6.33;1.00
72031;PMS5003;49185;42.320;23.198;2023-06-26T00:19:22;9.00;8.00;2.00
72031;PMS5003;49185;42.320;23.198;2023-06-26T00:21:48;11.00;6.67;2.00
72031;PMS5003;49185;42.320;23.198;2023-06-26T00:24:13;9.00;8.00;2.00
72031;PMS5003;49185;42.320;23.198;2023-06-26T00:26:39;7.00;6.00;1.00
72031;PMS5003;49185;42.320;23.198;2023-06-26T00:29:05;6.67;5.00;0.00
72031;PMS5003;49185;42.320;23.198;2023-06-26T00:31:30;6.00;6.00;0.00
72031;PMS5003;49185;42.320;23.198;2023-06-26T00:33:56;7.00;6.50;0.00
72031;PMS5003;49185;42.320;23.198;2023-06-26T00:36:21;10.00;7.33;0.00
72031;PMS5003;49185;42.320;23.198;2023-06-26T00:38:47;8.00;6.00;0.00
72031;PMS5003;49185;42.320;23.198;2023-06-26T00:41:12;8.00;7.00;0.67
72031;PMS5003;49185;42.320;23.198;2023-06-26T00:43:38;7.00;7.00;1.00
72031;PMS5003;49185;42.320;23.198;2023-06-26T00:46:04;8.00;7.00;1.50
72031;PMS5003;49185;42.320;23.198;2023-06-26T00:48:30;10.50;9.50;2.00
72031;PMS5003;49185;42.320;23.198;2023-06-26T00:50:55;10.00;8.33;2.00
72031;PMS5003;49185;42.320;23.198;2023-06-26T00:53:21;14.00;11.00;4.00
72031;PMS5003;49185;42.320;23.198;2023-06-26T00:55:47;13.00;9.00;1.75
72031;PMS5003;49185;42.320;23.198;2023-06-26T00:58:12;8.00;7.00;1.00
72031;PMS5003;49185;42.320;23.198;2023-06-26T01:00:38;9.00;7.00;1.00
72031;PMS5003;49185;42.320;23.198;2023-06-26T01:03:04;10.00;8.00;3.00
72031;PMS5003;49185;42.320;23.198;2023-06-26T01:05:29;10.00;8.00;3.00
72031;PMS5003;49185;42.320;23.198;2023-06-26T01:07:56;9.00;8.00;2.00
72031;PMS5003;49185;42.320;23.198;2023-06-26T01:10:23;9.75;7.50;2.00
72031;PMS5003;49185;42.320;23.198;2023-06-26T01:12:49;8.00;7.00;3.00
72031;PMS5003;49185;42.320;23.198;2023-06-26T01:15:15;6.33;6.00;3.00
72031;PMS5003;49185;42.320;23.198;2023-06-26T01:17:40;7.00;6.00;3.00
72031;PMS5003;49185;42.320;23.198;2023-06-26T01:20:07;8.75;7.00;2.00
72031;PMS5003;49185;42.320;23.198;2023-06-26T01:25:20;7.00;6.00;1.00
72031;PMS5003;49185;42.320;23.198;2023-06-26T01:27:54;9.75;7.25;3.00
72031;PMS5003;49185;42.320;23.198;2023-06-26T01:30:21;8.00;8.00;3.00
72031;PMS5003;49185;42.320;23.198;2023-06-26T01:32:47;8.25;6.25;3.00
72031;PMS5003;49185;42.320;23.198;2023-06-26T01:35:13;7.25;6.00;2.00
72031;PMS5003;49185;42.320;23.198;2023-06-26T01:37:40;7.00;7.00;3.00
72031;PMS5003;49185;42.320;23.198;2023-06-26T01:40:06;9.00;8.00;2.00
72031;PMS5003;49185;42.320;23.198;2023-06-26T01:42:34;13.00;10.25;2.00
72031;PMS5003;49185;42.320;23.198;2023-06-26T01:45:24;12.75;9.25;2.00
72031;PMS5003;49185;42.320;23.198;2023-06-26T01:47:54;10.00;8.00;3.00
72031;PMS5003;49185;42.320;23.198;2023-06-26T01:50:24;9.00;7.00;2.00
72031;PMS5003;49185;42.320;23.198;2023-06-26T01:55:39;13.50;8.00;4.00
72031;PMS5003;49185;42.320;23.198;2023-06-26T01:58:11;13.00;8.50;3.00
72031;PMS5003;49185;42.320;23.198;2023-06-26T02:00:39;10.00;8.50;3.00
72031;PMS5003;49185;42.320;23.198;2023-06-26T02:03:05;9.67;6.00;2.00
72031;PMS5003;49185;42.320;23.198;2023-06-26T02:05:31;8.00;7.00;1.00
72031;PMS5003;49185;42.320;23.198;2023-06-26T02:07:56;12.00;10.00;3.00
72031;PMS5003;49185;42.320;23.198;2023-06-26T02:10:22;11.00;9.00;3.00
72031;PMS5003;49185;42.320;23.198;2023-06-26T02:12:47;10.00;9.00;4.00
72031;PMS5003;49185;42.320;23.198;2023-06-26T02:15:12;12.00;11.00;4.00
72031;PMS5003;49185;42.320;23.198;2023-06-26T02:17:38;15.00;13.67;4.00
72031;PMS5003;49185;42.320;23.198;2023-06-26T02:20:04;14.33;12.67;3.00
72031;PMS5003;49185;42.320;23.198;2023-06-26T02:22:30;15.50;13.00;4.25
72031;PMS5003;49185;42.320;23.198;2023-06-26T02:24:55;14.00;12.33;4.00
72031;PMS5003;49185;42.320;23.198;2023-06-26T02:27:20;15.67;13.00;3.00
72031;PMS5003;49185;42.320;23.198;2023-06-26T02:29:46;18.00;15.67;4.00
72031;PMS5003;49185;42.320;23.198;2023-06-26T02:32:11;18.00;16.33;4.00
72031;PMS5003;49185;42.320;23.198;2023-06-26T02:34:37;17.00;14.00;4.00
72031;PMS5003;49185;42.320;23.198;2023-06-26T02:37:02;15.00;11.00;3.00
72031;PMS5003;49185;42.320;23.198;2023-06-26T02:39:28;16.00;12.33;4.00
72031;PMS5003;49185;42.320;23.198;2023-06-26T02:41:53;19.00;15.33;7.00
72031;PMS5003;49185;42.320;23.198;2023-06-26T02:44:19;21.00;19.67;7.67
72031;PMS5003;49185;42.320;23.198;2023-06-26T02:46:44;21.00;20.67;10.00
72031;PMS5003;49185;42.320;23.198;2023-06-26T02:49:09;26.33;24.00;11.33
72031;PMS5003;49185;42.320;23.198;2023-06-26T02:51:35;27.00;26.00;12.00
72031;PMS5003;49185;42.320;23.198;2023-06-26T02:54:00;27.67;26.00;12.00
72031;PMS5003;49185;42.320;23.198;2023-06-26T02:56:26;28.67;28.00;12.00
72031;PMS5003;49185;42.320;23.198;2023-06-26T02:58:52;26.00;24.50;13.50
72031;PMS5003;49185;42.320;23.198;2023-06-26T03:01:17;23.33;23.00;9.67
72031;PMS5003;49185;42.320;23.198;2023-06-26T03:03:43;21.00;20.00;7.00
72031;PMS5003;49185;42.320;23.198;2023-06-26T03:06:08;19.33;18.00;7.00
72031;PMS5003;49185;42.320;23.198;2023-06-26T03:08:37;20.00;19.00;8.00
72031;PMS5003;49185;42.320;23.198;2023-06-26T03:11:03;22.00;21.00;7.00
72031;PMS5003;49185;42.320;23.198;2023-06-26T03:13:28;23.00;21.00;8.00
72031;PMS5003;49185;42.320;23.198;2023-06-26T03:15:53;22.00;22.00;8.00
72031;PMS5003;49185;42.320;23.198;2023-06-26T03:18:19;22.33;20.00;8.00
72031;PMS5003;49185;42.320;23.198;2023-06-26T03:20:44;19.00;17.33;5.00
72031;PMS5003;49185;42.320;23.198;2023-06-26T03:23:10;16.25;14.25;4.00
72031;PMS5003;49185;42.320;23.198;2023-06-26T03:25:36;16.00;13.33;4.33
72031;PMS5003;49185;42.320;23.198;2023-06-26T03:28:01;18.00;16.00;6.00
72031;PMS5003;49185;42.320;23.198;2023-06-26T03:30:27;21.00;16.00;6.00
72031;PMS5003;49185;42.320;23.198;2023-06-26T03:32:52;19.00;16.33;5.67
72031;PMS5003;49185;42.320;23.198;2023-06-26T03:35:18;21.00;19.67;7.33
72031;PMS5003;49185;42.320;23.198;2023-06-26T03:37:43;25.00;23.00;8.67
72031;PMS5003;49185;42.320;23.198;2023-06-26T03:40:09;23.00;22.67;8.00
72031;PMS5003;49185;42.320;23.198;2023-06-26T03:42:35;23.00;21.25;9.25
72031;PMS5003;49185;42.320;23.198;2023-06-26T03:45:00;22.00;20.00;8.00
72031;PMS5003;49185;42.320;23.198;2023-06-26T03:47:26;19.67;17.67;8.00
72031;PMS5003;49185;42.320;23.198;2023-06-26T03:49:51;20.00;19.00;8.00
72031;PMS5003;49185;42.320;23.198;2023-06-26T03:52:16;20.67;19.00;7.00
72031;PMS5003;49185;42.320;23.198;2023-06-26T03:54:43;22.67;21.00;7.00
72031;PMS5003;49185;42.320;23.198;2023-06-26T03:57:08;24.00;21.00;8.75
72031;PMS5003;49185;42.320;23.198;2023-06-26T03:59:34;21.00;20.00;8.00
72031;PMS5003;49185;42.320;23.198;2023-06-26T04:01:59;20.33;20.33;8.00
72031;PMS5003;49185;42.320;23.198;2023-06-26T04:04:25;19.67;19.00;7.00
72031;PMS5003;49185;42.320;23.198;2023-06-26T04:06:50;20.67;19.00;8.67
72031;PMS5003;49185;42.320;23.198;2023-06-26T04:09:16;21.67;20.00;7.33
72031;PMS5003;49185;42.320;23.198;2023-06-26T04:11:42;19.00;18.33;4.33
72031;PMS5003;49185;42.320;23.198;2023-06-26T04:14:07;19.00;18.00;6.33
72031;PMS5003;49185;42.320;23.198;2023-06-26T04:16:32;20.00;17.00;7.00
72031;PMS5003;49185;42.320;23.198;2023-06-26T04:18:58;20.00;19.00;6.00
72031;PMS5003;49185;42.320;23.198;2023-06-26T04:21:23;22.33;20.67;7.00
72031;PMS5003;49185;42.320;23.198;2023-06-26T04:23:49;24.67;22.00;8.00
72031;PMS5003;49185;42.320;23.198;2023-06-26T04:26:14;23.00;20.67;8.67
72031;PMS5003;49185;42.320;23.198;2023-06-26T04:28:39;24.00;22.67;12.00
72031;PMS5003;49185;42.320;23.198;2023-06-26T04:31:05;27.67;25.33;13.00
72031;PMS5003;49185;42.320;23.198;2023-06-26T04:33:31;30.33;25.00;13.00
72031;PMS5003;49185;42.320;23.198;2023-06-26T04:35:57;33.50;29.00;13.00
72031;PMS5003;49185;42.320;23.198;2023-06-26T04:38:22;27.67;27.00;10.00
72031;PMS5003;49185;42.320;23.198;2023-06-26T04:40:48;22.00;22.00;10.00
72031;PMS5003;49185;42.320;23.198;2023-06-26T04:43:14;23.00;20.50;9.00
72031;PMS5003;49185;42.320;23.198;2023-06-26T04:45:39;22.50;20.00;10.25
72031;PMS5003;49185;42.320;23.198;2023-06-26T04:48:05;24.00;21.67;10.00
72031;PMS5003;49185;42.320;23.198;2023-06-26T04:50:30;21.67;19.00;9.00
72031;PMS5003;49185;42.320;23.198;2023-06-26T04:52:57;19.00;18.00;8.00
72031;PMS5003;49185;42.320;23.198;2023-06-26T04:55:25;19.33;17.33;6.33
72031;PMS5003;49185;42.320;23.198;2023-06-26T04:57:51;21.00;19.25;9.25
72031;PMS5003;49185;42.320;23.198;2023-06-26T05:00:16;19.00;19.00;8.00
72031;PMS5003;49185;42.320;23.198;2023-06-26T05:02:42;21.50;20.50;8.00
72031;PMS5003;49185;42.320;23.198;2023-06-26T05:05:08;20.00;20.00;6.00
72031;PMS5003;49185;42.320;23.198;2023-06-26T05:07:33;19.67;19.67;8.00
72031;PMS5003;49185;42.320;23.198;2023-06-26T05:09:59;19.67;19.67;8.00
72031;PMS5003;49185;42.320;23.198;2023-06-26T05:12:25;18.67;18.67;7.00
72031;PMS5003;49185;42.320;23.198;2023-06-26T05:14:50;21.67;19.67;7.00
72031;PMS5003;49185;42.320;23.198;2023-06-26T05:17:15;21.00;19.00;8.00
72031;PMS5003;49185;42.320;23.198;2023-06-26T05:19:41;20.00;18.00;9.00
72031;PMS5003;49185;42.320;23.198;2023-06-26T05:22:07;19.00;18.00;9.00
72031;PMS5003;49185;42.320;23.198;2023-06-26T05:24:36;20.00;19.00;8.00
72031;PMS5003;49185;42.320;23.198;2023-06-26T05:27:03;19.75;17.00;9.00
72031;PMS5003;49185;42.320;23.198;2023-06-26T05:29:30;23.00;21.00;14.00
72031;PMS5003;49185;42.320;23.198;2023-06-26T05:31:56;25.50;22.75;14.00
72031;PMS5003;49185;42.320;23.198;2023-06-26T05:34:25;25.00;24.50;14.00
72031;PMS5003;49185;42.320;23.198;2023-06-26T05:36:51;20.50;19.00;8.00
72031;PMS5003;49185;42.320;23.198;2023-06-26T05:39:17;19.00;18.00;6.00
72031;PMS5003;49185;42.320;23.198;2023-06-26T05:41:43;19.00;18.00;7.00
72031;PMS5003;49185;42.320;23.198;2023-06-26T05:44:10;20.00;18.00;7.00
72031;PMS5003;49185;42.320;23.198;2023-06-26T05:46:35;20.00;20.00;8.00
72031;PMS5003;49185;42.320;23.198;2023-06-26T05:49:01;21.00;21.00;9.67
72031;PMS5003;49185;42.320;23.198;2023-06-26T05:51:26;19.00;19.00;7.00
72031;PMS5003;49185;42.320;23.198;2023-06-26T05:53:53;21.25;20.00;8.00
72031;PMS5003;49185;42.320;23.198;2023-06-26T05:56:18;21.00;17.00;8.00
72031;PMS5003;49185;42.320;23.198;2023-06-26T05:58:44;19.67;17.00;8.33
72031;PMS5003;49185;42.320;23.198;2023-06-26T06:01:10;19.75;17.00;9.00
72031;PMS5003;49185;42.320;23.198;2023-06-26T06:03:36;18.00;15.75;7.75
72031;PMS5003;49185;42.320;23.198;2023-06-26T06:06:02;20.00;18.00;8.00
72031;PMS5003;49185;42.320;23.198;2023-06-26T06:08:27;19.33;17.00;7.00
72031;PMS5003;49185;42.320;23.198;2023-06-26T06:10:53;21.00;18.00;7.00
72031;PMS5003;49185;42.320;23.198;2023-06-26T06:13:18;20.00;18.00;7.00
72031;PMS5003;49185;42.320;23.198;2023-06-26T06:15:44;19.50;18.50;8.00
72031;PMS5003;49185;42.320;23.198;2023-06-26T06:18:10;19.00;18.00;7.33
72031;PMS5003;49185;42.320;23.198;2023-06-26T06:20:35;19.00;18.00;7.00
72031;PMS5003;49185;42.320;23.198;2023-06-26T06:23:01;19.67;19.00;6.33
72031;PMS5003;49185;42.320;23.198;2023-06-26T06:25:26;19.67;17.00;7.00
72031;PMS5003;49185;42.320;23.198;2023-06-26T06:27:52;20.00;18.67;8.00
72031;PMS5003;49185;42.320;23.198;2023-06-26T06:30:17;19.67;16.67;7.00
72031;PMS5003;49185;42.320;23.198;2023-06-26T06:32:43;19.00;17.00;9.00
72031;PMS5003;49185;42.320;23.198;2023-06-26T06:35:08;15.67;14.67;7.00
72031;PMS5003;49185;42.320;23.198;2023-06-26T06:37:34;16.67;14.00;6.67
72031;PMS5003;49185;42.320;23.198;2023-06-26T06:39:59;19.00;14.33;5.33
72031;PMS5003;49185;42.320;23.198;2023-06-26T06:42:24;20.33;17.00;8.00
72031;PMS5003;49185;42.320;23.198;2023-06-26T06:44:50;23.00;18.00;8.00
72031;PMS5003;49185;42.320;23.198;2023-06-26T06:47:15;19.67;17.00;7.00
72031;PMS5003;49185;42.320;23.198;2023-06-26T06:49:41;19.00;16.33;6.00
72031;PMS5003;49185;42.320;23.198;2023-06-26T06:52:06;19.33;17.00;8.00
72031;PMS5003;49185;42.320;23.198;2023-06-26T06:54:32;18.00;18.00;7.67
72031;PMS5003;49185;42.320;23.198;2023-06-26T06:57:16;20.00;20.00;7.00
72031;PMS5003;49185;42.320;23.198;2023-06-26T06:59:42;18.00;18.00;7.00
72031;PMS5003;49185;42.320;23.198;2023-06-26T07:02:07;18.00;16.00;7.00
72031;PMS5003;49185;42.320;23.198;2023-06-26T07:04:32;18.33;16.67;7.33
72031;PMS5003;49185;42.320;23.198;2023-06-26T07:06:58;18.67;18.00;7.00
72031;PMS5003;49185;42.320;23.198;2023-06-26T07:09:23;19.67;18.00;7.00
72031;PMS5003;49185;42.320;23.198;2023-06-26T07:11:49;20.00;18.00;7.33
72031;PMS5003;49185;42.320;23.198;2023-06-26T07:14:14;19.67;18.00;8.00
72031;PMS5003;49185;42.320;23.198;2023-06-26T07:16:40;20.67;20.00;9.00
72031;PMS5003;49185;42.320;23.198;2023-06-26T07:19:05;18.67;18.33;8.00
72031;PMS5003;49185;42.320;23.198;2023-06-26T07:21:30;20.67;20.00;7.67
72031;PMS5003;49185;42.320;23.198;2023-06-26T07:23:56;21.00;19.00;9.00
72031;PMS5003;49185;42.320;23.198;2023-06-26T07:26:21;22.00;18.33;9.33
72031;PMS5003;49185;42.320;23.198;2023-06-26T07:28:47;24.00;18.33;10.00
72031;PMS5003;49185;42.320;23.198;2023-06-26T07:31:12;25.00;22.00;10.00
72031;PMS5003;49185;42.320;23.198;2023-06-26T07:33:38;24.00;22.33;11.00
72031;PMS5003;49185;42.320;23.198;2023-06-26T07:36:03;21.00;20.00;8.67
72031;PMS5003;49185;42.320;23.198;2023-06-26T07:38:29;22.67;19.00;11.00
72031;PMS5003;49185;42.320;23.198;2023-06-26T07:40:54;22.00;21.00;12.33
72031;PMS5003;49185;42.320;23.198;2023-06-26T07:43:19;21.33;21.00;11.00
72031;PMS5003;49185;42.320;23.198;2023-06-26T07:45:48;24.50;23.50;11.50
72031;PMS5003;49185;42.320;23.198;2023-06-26T07:48:13;22.00;21.00;9.67
72031;PMS5003;49185;42.320;23.198;2023-06-26T07:50:39;22.00;22.00;10.00
72031;PMS5003;49185;42.320;23.198;2023-06-26T07:53:04;21.00;20.00;10.00
72031;PMS5003;49185;42.320;23.198;2023-06-26T07:55:29;20.67;19.67;10.00
72031;PMS5003;49185;42.320;23.198;2023-06-26T07:57:55;21.00;19.67;8.00
72031;PMS5003;49185;42.320;23.198;2023-06-26T08:00:20;21.00;18.00;9.00
72031;PMS5003;49185;42.320;23.198;2023-06-26T08:02:46;22.67;21.00;10.33
72031;PMS5003;49185;42.320;23.198;2023-06-26T08:05:11;21.33;19.67;8.00
72031;PMS5003;49185;42.320;23.198;2023-06-26T08:07:37;21.00;19.67;7.00
72031;PMS5003;49185;42.320;23.198;2023-06-26T08:10:02;21.33;18.00;9.33
72031;PMS5003;49185;42.320;23.198;2023-06-26T08:12:28;23.00;18.00;9.00
72031;PMS5003;49185;42.320;23.198;2023-06-26T08:14:53;20.33;17.67;7.00
72031;PMS5003;49185;42.320;23.198;2023-06-26T08:17:18;18.00;16.00;7.00
72031;PMS5003;49185;42.320;23.198;2023-06-26T08:19:44;16.00;16.00;7.33
72031;PMS5003;49185;42.320;23.198;2023-06-26T08:22:09;20.00;18.00;9.00
72031;PMS5003;49185;42.320;23.198;2023-06-26T08:24:35;18.67;17.00;8.00
72031;PMS5003;49185;42.320;23.198;2023-06-26T08:27:00;17.00;16.00;5.00
72031;PMS5003;49185;42.320;23.198;2023-06-26T08:29:26;17.00;16.00;5.33
72031;PMS5003;49185;42.320;23.198;2023-06-26T08:31:51;16.67;15.00;6.00
72031;PMS5003;49185;42.320;23.198;2023-06-26T08:34:16;18.00;16.00;5.33
72031;PMS5003;49185;42.320;23.198;2023-06-26T08:36:42;18.00;17.00;5.00
72031;PMS5003;49185;42.320;23.198;2023-06-26T08:39:07;18.67;17.00;8.00
72031;PMS5003;49185;42.320;23.198;2023-06-26T08:41:33;19.00;17.00;7.00
72031;PMS5003;49185;42.320;23.198;2023-06-26T08:43:58;19.00;16.00;5.33
72031;PMS5003;49185;42.320;23.198;2023-06-26T08:46:24;17.00;15.00;4.33
72031;PMS5003;49185;42.320;23.198;2023-06-26T08:48:56;17.00;16.00;4.50
72031;PMS5003;49185;42.320;23.198;2023-06-26T08:51:25;15.50;15.00;5.75
72031;PMS5003;49185;42.320;23.198;2023-06-26T08:56:58;17.00;15.00;5.00
72031;PMS5003;49185;42.320;23.198;2023-06-26T08:59:17;13.75;12.25;4.50
72031;PMS5003;49185;42.320;23.198;2023-06-26T09:01:43;18.00;16.00;5.00
72031;PMS5003;49185;42.320;23.198;2023-06-26T09:04:09;14.00;13.25;4.00
72031;PMS5003;49185;42.320;23.198;2023-06-26T09:06:34;15.33;13.33;4.00
72031;PMS5003;49185;42.320;23.198;2023-06-26T09:09:00;13.00;11.33;4.00
72031;PMS5003;49185;42.320;23.198;2023-06-26T09:11:25;10.00;10.00;4.00
72031;PMS5003;49185;42.320;23.198;2023-06-26T09:13:51;7.00;7.00;3.00
72031;PMS5003;49185;42.320;23.198;2023-06-26T09:16:17;8.00;8.00;2.75
72031;PMS5003;49185;42.320;23.198;2023-06-26T09:18:42;8.67;7.00;3.00
72031;PMS5003;49185;42.320;23.198;2023-06-26T09:21:08;11.00;8.00;3.00
72031;PMS5003;49185;42.320;23.198;2023-06-26T09:23:34;9.75;8.25;3.00
72031;PMS5003;49185;42.320;23.198;2023-06-26T09:26:04;9.00;8.25;3.00
72031;PMS5003;49185;42.320;23.198;2023-06-26T09:28:31;10.00;9.00;3.75
72031;PMS5003;49185;42.320;23.198;2023-06-26T09:31:00;10.00;9.00;5.00
72031;PMS5003;49185;42.320;23.198;2023-06-26T09:33:26;7.00;7.00;2.00
72031;PMS5003;49185;42.320;23.198;2023-06-26T09:35:52;6.33;6.33;1.00
72031;PMS5003;49185;42.320;23.198;2023-06-26T09:38:17;7.67;7.00;1.33
72031;PMS5003;49185;42.320;23.198;2023-06-26T09:40:43;8.00;8.00;3.00
72031;PMS5003;49185;42.320;23.198;2023-06-26T09:43:09;8.33;8.33;3.00
72031;PMS5003;49185;42.320;23.198;2023-06-26T09:45:39;8.50;8.50;3.00
72031;PMS5003;49185;42.320;23.198;2023-06-26T09:48:05;7.00;7.00;4.00
72031;PMS5003;49185;42.320;23.198;2023-06-26T09:50:34;6.50;6.50;2.75
72031;PMS5003;49185;42.320;23.198;2023-06-26T09:53:09;11.00;8.50;3.25
72031;PMS5003;49185;42.320;23.198;2023-06-26T09:55:36;12.25;11.00;5.25
72031;PMS5003;49185;42.320;23.198;2023-06-26T09:58:02;12.00;9.50;5.00
72031;PMS5003;49185;42.320;23.198;2023-06-26T10:00:28;13.00;10.00;5.00
72031;PMS5003;49185;42.320;23.198;2023-06-26T10:02:54;12.00;9.25;3.25
72031;PMS5003;49185;42.320;23.198;2023-06-26T10:05:20;15.33;11.67;5.00
72031;PMS5003;49185;42.320;23.198;2023-06-26T10:07:45;14.00;11.00;4.00
72031;PMS5003;49185;42.320;23.198;2023-06-26T10:10:12;14.00;12.50;5.25
72031;PMS5003;49185;42.320;23.198;2023-06-26T10:12:38;13.00;12.50;5.00
72031;PMS5003;49185;42.320;23.198;2023-06-26T10:15:03;14.67;12.67;5.00
72031;PMS5003;49185;42.320;23.198;2023-06-26T10:17:30;14.00;11.50;4.00
72031;PMS5003;49185;42.320;23.198;2023-06-26T10:19:59;15.25;12.00;4.00
72031;PMS5003;49185;42.320;23.198;2023-06-26T10:22:29;14.00;10.00;4.00
72031;PMS5003;49185;42.320;23.198;2023-06-26T10:25:00;12.75;9.50;4.00
72031;PMS5003;49185;42.320;23.198;2023-06-26T10:27:33;14.50;12.00;6.00
72031;PMS5003;49185;42.320;23.198;2023-06-26T10:30:03;15.50;15.00;5.00
72031;PMS5003;49185;42.320;23.198;2023-06-26T10:32:31;16.25;15.25;3.00
72031;PMS5003;49185;42.320;23.198;2023-06-26T10:34:58;12.00;10.75;3.00
72031;PMS5003;49185;42.320;23.198;2023-06-26T10:37:43;14.33;11.67;5.00
72031;PMS5003;49185;42.320;23.198;2023-06-26T10:40:10;15.00;12.00;4.00
72031;PMS5003;49185;42.320;23.198;2023-06-26T10:42:37;15.00;12.00;5.00
72031;PMS5003;49185;42.320;23.198;2023-06-26T10:47:35;15.00;13.00;4.00
72031;PMS5003;49185;42.320;23.198;2023-06-26T10:53:08;15.00;12.00;5.00
72031;PMS5003;49185;42.320;23.198;2023-06-26T10:56:04;16.75;15.00;6.75
72031;PMS5003;49185;42.320;23.198;2023-06-26T10:58:47;18.00;15.00;5.25
72031;PMS5003;49185;42.320;23.198;2023-06-26T11:06:23;12.50;12.00;4.00
72031;PMS5003;49185;42.320;23.198;2023-06-26T11:11:15;14.75;11.00;3.00
72031;PMS5003;49185;42.320;23.198;2023-06-26T11:13:41;14.50;12.00;5.00
72031;PMS5003;49185;42.320;23.198;2023-06-26T11:16:07;15.00;13.25;4.00
72031;PMS5003;49185;42.320;23.198;2023-06-26T11:18:33;19.00;16.00;6.33
72031;PMS5003;49185;42.320;23.198;2023-06-26T11:21:08;16.00;16.00;6.00
72031;PMS5003;49185;42.320;23.198;2023-06-26T11:23:35;13.00;13.00;4.00
72031;PMS5003;49185;42.320;23.198;2023-06-26T11:26:20;12.00;12.00;3.00
72031;PMS5003;49185;42.320;23.198;2023-06-26T11:28:53;11.00;9.00;3.00
72031;PMS5003;49185;42.320;23.198;2023-06-26T11:31:33;12.00;9.00;3.00
72031;PMS5003;49185;42.320;23.198;2023-06-26T11:34:01;9.00;8.25;4.00
72031;PMS5003;49185;42.320;23.198;2023-06-26T11:36:27;9.50;8.75;4.00
72031;PMS5003;49185;42.320;23.198;2023-06-26T11:38:54;6.00;6.00;2.00
72031;PMS5003;49185;42.320;23.198;2023-06-26T11:41:19;7.00;7.00;3.00
72031;PMS5003;49185;42.320;23.198;2023-06-26T11:43:45;8.00;7.67;3.00
72031;PMS5003;49185;42.320;23.198;2023-06-26T11:46:10;9.00;9.00;2.00
72031;PMS5003;49185;42.320;23.198;2023-06-26T11:48:36;8.75;7.50;2.00
72031;PMS5003;49185;42.320;23.198;2023-06-26T11:51:04;6.00;6.00;2.00
72031;PMS5003;49185;42.320;23.198;2023-06-26T11:53:30;8.00;8.00;3.00
72031;PMS5003;49185;42.320;23.198;2023-06-26T11:55:55;6.67;6.67;3.00
72031;PMS5003;49185;42.320;23.198;2023-06-26T11:58:21;6.00;5.00;3.00
72031;PMS5003;49185;42.320;23.198;2023-06-26T12:00:47;6.00;6.00;2.00
72031;PMS5003;49185;42.320;23.198;2023-06-26T12:03:13;7.75;7.75;1.25
72031;PMS5003;49185;42.320;23.198;2023-06-26T12:05:39;6.50;6.50;3.00
72031;PMS5003;49185;42.320;23.198;2023-06-26T12:08:04;6.00;6.00;2.00
72031;PMS5003;49185;42.320;23.198;2023-06-26T12:10:31;6.50;5.25;1.00
72031;PMS5003;49185;42.320;23.198;2023-06-26T12:12:56;6.00;6.00;2.33
72031;PMS5003;49185;42.320;23.198;2023-06-26T12:15:21;5.33;5.33;3.00
72031;PMS5003;49185;42.320;23.198;2023-06-26T12:17:47;6.33;6.00;3.00
72031;PMS5003;49185;42.320;23.198;2023-06-26T12:20:19;6.00;6.00;2.00
72031;PMS5003;49185;42.320;23.198;2023-06-26T12:22:46;6.75;6.75;3.00
72031;PMS5003;49185;42.320;23.198;2023-06-26T12:25:12;5.50;5.00;2.75
72031;PMS5003;49185;42.320;23.198;2023-06-26T12:27:38;7.33;7.00;3.00
72031;PMS5003;49185;42.320;23.198;2023-06-26T12:30:04;7.00;6.67;2.00
72031;PMS5003;49185;42.320;23.198;2023-06-26T12:32:30;7.75;7.75;3.00
72031;PMS5003;49185;42.320;23.198;2023-06-26T12:34:56;9.00;8.00;3.00
72031;PMS5003;49185;42.320;23.198;2023-06-26T12:37:22;7.00;6.00;3.00
72031;PMS5003;49185;42.320;23.198;2023-06-26T12:39:48;7.67;7.67;3.00
72031;PMS5003;49185;42.320;23.198;2023-06-26T12:44:47;6.00;6.00;2.00
72031;PMS5003;49185;42.320;23.198;2023-06-26T12:47:16;6.00;6.00;2.00
72031;PMS5003;49185;42.320;23.198;2023-06-26T12:49:43;8.00;8.00;2.50
72031;PMS5003;49185;42.320;23.198;2023-06-26T12:52:11;9.00;7.00;3.00
72031;PMS5003;49185;42.320;23.198;2023-06-26T12:54:41;6.00;6.00;3.00
72031;PMS5003;49185;42.320;23.198;2023-06-26T12:57:08;7.00;6.00;2.00
72031;PMS5003;49185;42.320;23.198;2023-06-26T12:59:37;6.50;6.25;1.00
72031;PMS5003;49185;42.320;23.198;2023-06-26T13:02:03;7.25;7.00;3.00
72031;PMS5003;49185;42.320;23.198;2023-06-26T13:04:30;6.75;6.75;4.00
72031;PMS5003;49185;42.320;23.198;2023-06-26T13:06:55;10.00;9.00;4.00
72031;PMS5003;49185;42.320;23.198;2023-06-26T13:09:22;10.00;7.00;3.00
72031;PMS5003;49185;42.320;23.198;2023-06-26T13:11:48;7.00;7.00;4.00
72031;PMS5003;49185;42.320;23.198;2023-06-26T13:14:14;7.00;7.00;3.00
72031;PMS5003;49185;42.320;23.198;2023-06-26T13:16:39;8.00;7.00;4.00
72031;PMS5003;49185;42.320;23.198;2023-06-26T13:19:05;8.00;8.00;3.00
72031;PMS5003;49185;42.320;23.198;2023-06-26T13:21:31;7.00;7.00;2.00
72031;PMS5003;49185;42.320;23.198;2023-06-26T13:23:57;6.67;6.67;4.00
72031;PMS5003;49185;42.320;23.198;2023-06-26T13:26:23;9.33;9.00;4.00
72031;PMS5003;49185;42.320;23.198;2023-06-26T13:28:48;9.50;7.75;4.00
72031;PMS5003;49185;42.320;23.198;2023-06-26T13:31:14;10.67;8.00;3.00
72031;PMS5003;49185;42.320;23.198;2023-06-26T13:33:40;7.25;7.00;3.00
72031;PMS5003;49185;42.320;23.198;2023-06-26T13:36:06;6.00;6.00;2.00
72031;PMS5003;49185;42.320;23.198;2023-06-26T13:38:35;9.00;8.33;2.33
72031;PMS5003;49185;42.320;23.198;2023-06-26T13:41:01;8.00;7.00;1.00
72031;PMS5003;49185;42.320;23.198;2023-06-26T13:43:27;8.00;7.67;2.00
72031;PMS5003;49185;42.320;23.198;2023-06-26T13:45:53;8.25;8.00;3.50
72031;PMS5003;49185;42.320;23.198;2023-06-26T13:48:19;7.75;7.75;4.25
72031;PMS5003;49185;42.320;23.198;2023-06-26T13:50:45;7.00;7.00;2.00
72031;PMS5003;49185;42.320;23.198;2023-06-26T14:07:51;8.50;8.50;3.50
72031;PMS5003;49185;42.320;23.198;2023-06-26T14:10:17;7.00;7.00;2.00
72031;PMS5003;49185;42.320;23.198;2023-06-26T14:12:42;8.00;8.00;3.00
72031;PMS5003;49185;42.320;23.198;2023-06-26T14:15:07;7.00;7.00;3.00
72031;PMS5003;49185;42.320;23.198;2023-06-26T14:17:33;6.00;6.00;3.00
72031;PMS5003;49185;42.320;23.198;2023-06-26T14:19:59;8.00;6.00;3.00
72031;PMS5003;49185;42.320;23.198;2023-06-26T14:22:24;8.67;8.00;2.00
72031;PMS5003;49185;42.320;23.198;2023-06-26T14:24:50;9.67;9.00;4.00
72031;PMS5003;49185;42.320;23.198;2023-06-26T14:27:15;9.33;7.00;3.00
72031;PMS5003;49185;42.320;23.198;2023-06-26T14:29:41;9.00;6.00;2.00